Map

Track Data

SID SEASON NUMBER BASIN SUBBASIN NAME ISO_TIME NATURE LAT LON WMO_WIND WMO_PRES WMO_AGENCY TRACK_TYPE DIST2LAND LANDFALL IFLAG USA_AGENCY USA_ATCF_ID USA_LAT USA_LON USA_RECORD USA_STATUS USA_WIND USA_PRES USA_SSHS USA_R34_NE USA_R34_SE USA_R34_SW USA_R34_NW USA_R50_NE USA_R50_SE USA_R50_SW USA_R50_NW USA_R64_NE USA_R64_SE USA_R64_SW USA_R64_NW USA_POCI USA_ROCI USA_RMW USA_EYE TOKYO_LAT TOKYO_LON TOKYO_GRADE TOKYO_WIND TOKYO_PRES TOKYO_R50_DIR TOKYO_R50_LONG TOKYO_R50_SHORT TOKYO_R30_DIR TOKYO_R30_LONG TOKYO_R30_SHORT TOKYO_LAND CMA_LAT CMA_LON CMA_CAT CMA_WIND CMA_PRES HKO_LAT HKO_LON HKO_CAT HKO_WIND HKO_PRES NEWDELHI_LAT NEWDELHI_LON NEWDELHI_GRADE NEWDELHI_WIND NEWDELHI_PRES NEWDELHI_CI NEWDELHI_DP NEWDELHI_POCI REUNION_LAT REUNION_LON REUNION_TYPE REUNION_WIND REUNION_PRES REUNION_TNUM REUNION_CI REUNION_RMW REUNION_R34_NE REUNION_R34_SE REUNION_R34_SW REUNION_R34_NW REUNION_R50_NE REUNION_R50_SE REUNION_R50_SW REUNION_R50_NW REUNION_R64_NE REUNION_R64_SE REUNION_R64_SW REUNION_R64_NW BOM_LAT BOM_LON BOM_TYPE BOM_WIND BOM_PRES BOM_TNUM BOM_CI BOM_RMW BOM_R34_NE BOM_R34_SE BOM_R34_SW BOM_R34_NW BOM_R50_NE BOM_R50_SE BOM_R50_SW BOM_R50_NW BOM_R64_NE BOM_R64_SE BOM_R64_SW BOM_R64_NW BOM_ROCI BOM_POCI BOM_EYE BOM_POS_METHOD BOM_PRES_METHOD NADI_LAT NADI_LON NADI_CAT NADI_WIND NADI_PRES WELLINGTON_LAT WELLINGTON_LON WELLINGTON_WIND WELLINGTON_PRES DS824_LAT DS824_LON DS824_STAGE DS824_WIND DS824_PRES TD9636_LAT TD9636_LON TD9636_STAGE TD9636_WIND TD9636_PRES TD9635_LAT TD9635_LON TD9635_WIND TD9635_PRES TD9635_ROCI NEUMANN_LAT NEUMANN_LON NEUMANN_CLASS NEUMANN_WIND NEUMANN_PRES MLC_LAT MLC_LON MLC_CLASS MLC_WIND MLC_PRES USA_GUST BOM_GUST BOM_GUST_PER REUNION_GUST REUNION_GUST_PER USA_SEAHGT USA_SEARAD_NE USA_SEARAD_SE USA_SEARAD_SW USA_SEARAD_NW STORM_SPEED STORM_DIR
1858257N15325 1858 12 NA NA NOT_NAMED 1858-09-13 12:00:00 TS 14.5000 -35.5000 main 1937 1937 _____________O -1 14.5000 -35.5000 TD 30 8 300
1858257N15325 1858 12 NA NA NOT_NAMED 1858-09-13 15:00:00 TS 14.7001 -35.8599 main 1979 1979 _____________P -1 14.7001 -35.8599 TD 30 8 301
1858257N15325 1858 12 NA NA NOT_NAMED 1858-09-13 18:00:00 TS 14.9000 -36.2000 main 2010 2010 _____________O -1 14.9000 -36.2000 TD 30 7 303
1858257N15325 1858 12 NA NA NOT_NAMED 1858-09-13 21:00:00 TS 15.0999 -36.5076 main 2022 2009 _____________P -1 15.0999 -36.5076 TD 30 7 305
1858257N15325 1858 12 NA NA NOT_NAMED 1858-09-14 00:00:00 TS 15.3000 -36.8000 main 2009 1997 _____________O -1 15.3000 -36.8000 TD 30 7 305
1858257N15325 1858 12 NA NA NOT_NAMED 1858-09-14 03:00:00 TS 15.5075 -37.1000 main 1997 1985 _____________P -1 15.5075 -37.1000 TD 30 7 305
1858257N15325 1858 12 NA NA NOT_NAMED 1858-09-14 06:00:00 TS 15.7000 -37.4000 main 1985 1967 _____________O -1 15.7000 -37.4000 TD 30 7 301
1858257N15325 1858 12 NA NA NOT_NAMED 1858-09-14 09:00:00 TS 15.8424 -37.6777 main 1967 1957 _____________P -1 15.8424 -37.6777 TD 30 7 297
1858257N15325 1858 12 NA NA NOT_NAMED 1858-09-14 12:00:00 TS 16.0000 -38.0000 main 1957 1940 _____________O -1 16.0000 -38.0000 TD 30 8 299
1858257N15325 1858 12 NA NA NOT_NAMED 1858-09-14 15:00:00 TS 16.2350 -38.4275 main 1940 1923 _____________P -1 16.2350 -38.4275 TD 30 10 300
1858257N15325 1858 12 NA NA NOT_NAMED 1858-09-14 18:00:00 TS 16.5000 -38.9000 main 1923 1908 _____________O -1 16.5000 -38.9000 TD 30 10 300
1858257N15325 1858 12 NA NA NOT_NAMED 1858-09-14 21:00:00 TS 16.7499 -39.3501 main 1901 1895 _____________P -1 16.7499 -39.3501 TD 30 10 300
1858257N15325 1858 12 NA NA NOT_NAMED 1858-09-15 00:00:00 TS 17.0000 -39.8000 main 1896 1883 _____________O -1 17.0000 -39.8000 TD 30 10 300
1858257N15325 1858 12 NA NA NOT_NAMED 1858-09-15 03:00:00 TS 17.2574 -40.2575 main 1886 1874 _____________P -1 17.2574 -40.2575 TD 30 10 300
1858257N15325 1858 12 NA NA NOT_NAMED 1858-09-15 06:00:00 TS 17.5000 -40.7000 main 1876 1864 _____________O -1 17.5000 -40.7000 TD 30 9 298
1858257N15325 1858 12 NA NA NOT_NAMED 1858-09-15 09:00:00 TS 17.6847 -41.0854 main 1867 1857 _____________P -1 17.6847 -41.0854 TD 32 9 298
1858257N15325 1858 12 NA NA NOT_NAMED 1858-09-15 12:00:00 TS 17.9000 -41.5000 main 1859 1853 _____________O -1 17.9000 -41.5000 TS 35 11 300
1858257N15325 1858 12 NA NA NOT_NAMED 1858-09-15 15:00:00 TS 18.2277 -42.0572 main 1849 1847 _____________P -1 18.2277 -42.0572 TS 37 13 304
1858257N15325 1858 12 NA NA NOT_NAMED 1858-09-15 18:00:00 TS 18.6000 -42.6000 main 1852 1845 _____________O -1 18.6000 -42.6000 TS 40 11 310
1858257N15325 1858 12 NA NA NOT_NAMED 1858-09-15 21:00:00 TS 18.9497 -42.9803 main 1854 1854 _____________P -1 18.9497 -42.9803 TS 42 10 317
1858257N15325 1858 12 NA NA NOT_NAMED 1858-09-16 00:00:00 TS 19.3000 -43.3000 main 1873 1873 _____________O -1 19.3000 -43.3000 TS 45 10 317
1858257N15325 1858 12 NA NA NOT_NAMED 1858-09-16 03:00:00 TS 19.6500 -43.6725 main 1888 1882 _____________P -1 19.6500 -43.6725 TS 47 10 317
1858257N15325 1858 12 NA NA NOT_NAMED 1858-09-16 06:00:00 TS 20.0000 -44.0000 main 1900 1900 _____________O -1 20.0000 -44.0000 TS 50 9 324
1858257N15325 1858 12 NA NA NOT_NAMED 1858-09-16 09:00:00 TS 20.3499 -44.2227 main 1919 1919 _____________P -1 20.3499 -44.2227 TS 52 8 332
1858257N15325 1858 12 NA NA NOT_NAMED 1858-09-16 12:00:00 TS 20.7000 -44.4000 main 1948 1948 _____________O -1 20.7000 -44.4000 TS 55 8 333
1858257N15325 1858 12 NA NA NOT_NAMED 1858-09-16 15:00:00 TS 21.0500 -44.6075 main 1977 1967 _____________P -1 21.0500 -44.6075 TS 57 8 332
1858257N15325 1858 12 NA NA NOT_NAMED 1858-09-16 18:00:00 TS 21.4000 -44.8000 main 1998 1998 _____________O -1 21.4000 -44.8000 TS 60 8 335
1858257N15325 1858 12 NA NA NOT_NAMED 1858-09-16 21:00:00 TS 21.7575 -44.9651 main 2029 2029 _____________P -1 21.7575 -44.9651 TS 60 8 338
1858257N15325 1858 12 NA NA NOT_NAMED 1858-09-17 00:00:00 TS 22.1000 -45.1000 main 2055 2055 _____________O -1 22.1000 -45.1000 TS 60 7 340
1858257N15325 1858 12 NA NA NOT_NAMED 1858-09-17 03:00:00 TS 22.4075 -45.2225 main 2081 2081 _____________P -1 22.4075 -45.2225 TS 62 6 343
1858257N15325 1858 12 NA NA NOT_NAMED 1858-09-17 06:00:00 TS 22.7000 -45.3000 main 2107 2107 _____________O -1 22.7000 -45.3000 HU 65 991 6 352
1858257N15325 1858 12 NA NA NOT_NAMED 1858-09-17 09:00:00 TS 23.0075 -45.3076 main 2138 2138 _____________P -1 23.0075 -45.3076 HU 65 6 1
1858257N15325 1858 12 NA NA NOT_NAMED 1858-09-17 12:00:00 TS 23.3000 -45.3000 main 2168 2168 _____________O -1 23.3000 -45.3000 HU 65 5 356
1858257N15325 1858 12 NA NA NOT_NAMED 1858-09-17 15:00:00 TS 23.5500 -45.3499 main 2183 2173 _____________P -1 23.5500 -45.3499 HU 65 5 350
1858257N15325 1858 12 NA NA NOT_NAMED 1858-09-17 18:00:00 TS 23.8000 -45.4000 main 2177 2177 _____________O -1 23.8000 -45.4000 HU 65 6 355
1858257N15325 1858 12 NA NA NOT_NAMED 1858-09-17 21:00:00 TS 24.1000 -45.4076 main 2185 2185 _____________P -1 24.1000 -45.4076 HU 67 6 0
1858257N15325 1858 12 NA NA NOT_NAMED 1858-09-18 00:00:00 TS 24.4000 -45.4000 main 2193 2193 _____________O -1 24.4000 -45.4000 HU 70 6 0
1858257N15325 1858 12 NA NA NOT_NAMED 1858-09-18 03:00:00 TS 24.6500 -45.4000 main 2201 2198 _____________P -1 24.6500 -45.4000 HU 70 5 2
1858257N15325 1858 12 NA NA NOT_NAMED 1858-09-18 06:00:00 TS 24.9000 -45.4000 main 2207 2207 _____________O -1 24.9000 -45.4000 HU 70 6 0
1858257N15325 1858 12 NA NA NOT_NAMED 1858-09-18 09:00:00 TS 25.2000 -45.4000 main 2216 2216 _____________P -1 25.2000 -45.4000 HU 70 6 359
1858257N15325 1858 12 NA NA NOT_NAMED 1858-09-18 12:00:00 TS 25.5000 -45.4000 main 2225 2225 _____________O -1 25.5000 -45.4000 HU 70 6 0
1858257N15325 1858 12 NA NA NOT_NAMED 1858-09-18 15:00:00 TS 25.7500 -45.4000 main 2235 2232 _____________P -1 25.7500 -45.4000 HU 70 5 2
1858257N15325 1858 12 NA NA NOT_NAMED 1858-09-18 18:00:00 TS 26.0000 -45.4000 main 2242 2242 _____________O -1 26.0000 -45.4000 HU 70 6 0
1858257N15325 1858 12 NA NA NOT_NAMED 1858-09-18 21:00:00 TS 26.3000 -45.4074 main 2252 2252 _____________P -1 26.3000 -45.4074 HU 72 6 1
1858257N15325 1858 12 NA NA NOT_NAMED 1858-09-19 00:00:00 TS 26.6000 -45.4000 main 2263 2263 _____________O -1 26.6000 -45.4000 HU 75 6 4
1858257N15325 1858 12 NA NA NOT_NAMED 1858-09-19 03:00:00 TS 26.8500 -45.3575 main 2275 2271 _____________P -1 26.8500 -45.3575 HU 75 5 10
1858257N15325 1858 12 NA NA NOT_NAMED 1858-09-19 06:00:00 TS 27.1000 -45.3000 main 2279 2247 _____________O -1 27.1000 -45.3000 HU 75 6 10
1858257N15325 1858 12 NA NA NOT_NAMED 1858-09-19 09:00:00 TS 27.4000 -45.2500 main 2249 2217 _____________P -1 27.4000 -45.2500 HU 75 6 8
1858257N15325 1858 12 NA NA NOT_NAMED 1858-09-19 12:00:00 TS 27.7000 -45.2000 main 2217 2196 _____________O -1 27.7000 -45.2000 HU 75 6 8
1858257N15325 1858 12 NA NA NOT_NAMED 1858-09-19 15:00:00 TS 27.9500 -45.1574 main 2196 2167 _____________P -1 27.9500 -45.1574 HU 75 5 10
1858257N15325 1858 12 NA NA NOT_NAMED 1858-09-19 18:00:00 TS 28.2000 -45.1000 main 2167 2137 _____________O -1 28.2000 -45.1000 HU 75 6 13
1858257N15325 1858 12 NA NA NOT_NAMED 1858-09-19 21:00:00 TS 28.5000 -45.0075 main 2137 2108 _____________P -1 28.5000 -45.0075 HU 75 6 16
1858257N15325 1858 12 NA NA NOT_NAMED 1858-09-20 00:00:00 TS 28.8000 -44.9000 main 2108 2090 _____________O -1 28.8000 -44.9000 HU 75 6 18
1858257N15325 1858 12 NA NA NOT_NAMED 1858-09-20 03:00:00 TS 29.0500 -44.7999 main 2090 2061 _____________P -1 29.0500 -44.7999 HU 75 5 20
1858257N15325 1858 12 NA NA NOT_NAMED 1858-09-20 06:00:00 TS 29.3000 -44.7000 main 2061 2033 _____________O -1 29.3000 -44.7000 HU 75 6 17
1858257N15325 1858 12 NA NA NOT_NAMED 1858-09-20 09:00:00 TS 29.6000 -44.6074 main 2033 2004 _____________P -1 29.6000 -44.6074 HU 75 6 16
1858257N15325 1858 12 NA NA NOT_NAMED 1858-09-20 12:00:00 TS 29.9000 -44.5000 main 2004 1987 _____________O -1 29.9000 -44.5000 HU 75 6 21
1858257N15325 1858 12 NA NA NOT_NAMED 1858-09-20 15:00:00 TS 30.1500 -44.3574 main 1976 1962 _____________P -1 30.1500 -44.3574 HU 75 6 28
1858257N15325 1858 12 NA NA NOT_NAMED 1858-09-20 18:00:00 TS 30.4000 -44.2000 main 1962 1934 _____________O -1 30.4000 -44.2000 HU 75 6 26
1858257N15325 1858 12 NA NA NOT_NAMED 1858-09-20 21:00:00 TS 30.7000 -44.0425 main 1937 1910 _____________P -1 30.7000 -44.0425 HU 75 7 23
1858257N15325 1858 12 NA NA NOT_NAMED 1858-09-21 00:00:00 TS 31.0000 -43.9000 main 1910 1893 _____________O -1 31.0000 -43.9000 HU 75 6 21
1858257N15325 1858 12 NA NA NOT_NAMED 1858-09-21 03:00:00 TS 31.2575 -43.7924 main 1883 1866 _____________P -1 31.2575 -43.7924 HU 75 5 19
1858257N15325 1858 12 NA NA NOT_NAMED 1858-09-21 06:00:00 TS 31.5000 -43.7000 main 1866 1849 _____________O -1 31.5000 -43.7000 HU 75 5 18
1858257N15325 1858 12 NA NA NOT_NAMED 1858-09-21 09:00:00 TS 31.7500 -43.6074 main 1849 1822 _____________P -1 31.7500 -43.6074 HU 75 5 19
1858257N15325 1858 12 NA NA NOT_NAMED 1858-09-21 12:00:00 TS 32.0000 -43.5000 main 1822 1806 _____________O -1 32.0000 -43.5000 HU 75 5 22
1858257N15325 1858 12 NA NA NOT_NAMED 1858-09-21 15:00:00 TS 32.2500 -43.3649 main 1806 1783 _____________P -1 32.2500 -43.3649 HU 75 6 27
1858257N15325 1858 12 NA NA NOT_NAMED 1858-09-21 18:00:00 TS 32.5000 -43.2000 main 1783 1767 _____________O -1 32.5000 -43.2000 HU 75 6 31
1858257N15325 1858 12 NA NA NOT_NAMED 1858-09-21 21:00:00 TS 32.7500 -43.0075 main 1761 1750 _____________P -1 32.7500 -43.0075 HU 72 6 34
1858257N15325 1858 12 NA NA NOT_NAMED 1858-09-22 00:00:00 TS 33.0000 -42.8000 main 1750 1734 _____________O -1 33.0000 -42.8000 HU 70 6 34
1858257N15325 1858 12 NA NA NOT_NAMED 1858-09-22 03:00:00 TS 33.2500 -42.5999 main 1739 1718 _____________P -1 33.2500 -42.5999 HU 70 6 34
1858257N15325 1858 12 NA NA NOT_NAMED 1858-09-22 06:00:00 TS 33.5000 -42.4000 main 1718 1703 _____________O -1 33.5000 -42.4000 HU 70 6 32
1858257N15325 1858 12 NA NA NOT_NAMED 1858-09-22 09:00:00 TS 33.7196 -42.2440 main 1707 1688 _____________P -1 33.7196 -42.2440 HU 67 6 34
1858257N15325 1858 12 NA NA NOT_NAMED 1858-09-22 12:00:00 TS 34.0000 -42.0000 main 1688 1669 _____________O -1 34.0000 -42.0000 HU 65 9 40
1858257N15325 1858 12 NA NA NOT_NAMED 1858-09-22 15:00:00 TS 34.4202 -41.5455 main 1673 1651 _____________P -1 34.4202 -41.5455 HU 62 12 43
1858257N15325 1858 12 NA NA NOT_NAMED 1858-09-22 18:00:00 TS 34.9000 -41.0000 main 1652 1636 _____________O -1 34.9000 -41.0000 TS 60 13 42
1858257N15325 1858 12 NA NA NOT_NAMED 1858-09-22 21:00:00 TS 35.3573 -40.4996 main 1633 1619 _____________P -1 35.3573 -40.4996 TS 57 12 42
1858257N15325 1858 12 NA NA NOT_NAMED 1858-09-23 00:00:00 TS 35.8000 -40.0000 main 1625 1613 _____________O -1 35.8000 -40.0000 TS 55 12 44
1858257N15325 1858 12 NA NA NOT_NAMED 1858-09-23 03:00:00 TS 36.1998 -39.4992 main 1618 1608 _____________P -1 36.1998 -39.4992 TS 52 11 45
1858257N15325 1858 12 NA NA NOT_NAMED 1858-09-23 06:00:00 TS 36.6000 -39.0000 main 1614 1606 _____________O -1 36.6000 -39.0000 TS 50 11 43
1858257N15325 1858 12 NA NA NOT_NAMED 1858-09-23 09:00:00 TS 37.0115 -38.5502 main 1606 1599 _____________P -1 37.0115 -38.5502 TS 47 12 42
1858257N15325 1858 12 NA NA NOT_NAMED 1858-09-23 12:00:00 ET 37.5000 -38.0000 main 1604 1599 _____________O -1 37.5000 -38.0000 EX 45 15 44
1858257N15325 1858 12 NA NA NOT_NAMED 1858-09-23 15:00:00 ET 38.1277 -37.2106 main 1608 1601 _____________P -1 38.1277 -37.2106 EX 42 19 46
1858257N15325 1858 12 NA NA NOT_NAMED 1858-09-23 18:00:00 ET 38.8000 -36.3000 main 1617 1617 _____________O -1 38.8000 -36.3000 EX 40 19 48
1858257N15325 1858 12 NA NA NOT_NAMED 1858-09-23 21:00:00 ET 39.3995 -35.4056 main 1639 1639 _____________P -1 39.3995 -35.4056 EX 40 18 49
1858257N15325 1858 12 NA NA NOT_NAMED 1858-09-24 00:00:00 ET 40.0000 -34.5000 main 1664 1664 _____________O -1 40.0000 -34.5000 EX 40 19 48
1858257N15325 1858 12 NA NA NOT_NAMED 1858-09-24 03:00:00 ET 40.6495 -33.5916 main 1689 1689 _____________P -1 40.6495 -33.5916 EX 37 19 46
1858257N15325 1858 12 NA NA NOT_NAMED 1858-09-24 06:00:00 ET 41.3000 -32.7000 main 1712 1712 _____________O -1 41.3000 -32.7000 EX 35 18 46
1858257N15325 1858 12 NA NA NOT_NAMED 1858-09-24 09:00:00 ET 41.9136 -31.8426 main 1745 1745 _____________P -1 41.9136 -31.8426 EX 35 17 47
1858257N15325 1858 12 NA NA NOT_NAMED 1858-09-24 12:00:00 ET 42.5000 -31.0000 main 1761 _____________O -1 42.5000 -31.0000 EX 35 17 47

About IBTrACS Database

This database is a web-friendly format of International Best Track Archive for Climate Stewardship (IBTrACS), a global best track data archive curated by NOAA dating back to 1842.

Updated: 2021-11-26